Decoded Metar for EPWA (WARSAW in POLAND) (IATA:WAW) | Meteo·Mobile Aviation Weather
aviador You're here:

EPWA Decoded Metar

WARSAW in POLAND
Report Time2019-03-23 08:00:00
UTC Time2019-03-23 08:15:27
Flight Rules vfr VFR
Wind170° at 10 kt
W.Decomp.*RWY 15: 9.7 kt HW 2.6 kt RCW
RWY 11: 5.7 kt HW 8.2 kt RCW
W.Rank170° ranks 13
Current wind is above 170° avg. (5.6)
Visibility9999 m
Phenomena:N/A
Clouds:N/A
Expected CloudBase > 4,800 ft AGL from Temp-Dew spread
CeilingNone
Temp09°C (ISA -5)
Dew Point-3°C (43% RH)
AAT3.0°C
QNH1029 hPa
Density Alt-755 ft
Elevation351 ft
Report Wrong Elevation
Raw Report
EPWA 230800Z 17010KT CAVOK 09/M03 Q1029 NOSIG=

Extra information for EPWA:More info

Metar Taf Metar & Taf Last 4 Metars F.Rules Stats Wind Profile Meteogram Temp Stats Airport Information Weather charts Add Link Nearby VenuesMetar ALERT Operation Metar Decoded Social comments